Time;durP1;ratioP1;P1;durP2;ratioP2;P2;SDS_P1;SDS_P2;PMS_P1;PMS_P2;Temp;Humidity;BMP_temperature;BMP_pressure;BME280_temperature;BME280_humidity;BME280_pressure;Samples;Min_cycle;Max_cycle;Signal;HPM_P1;HPM_P2
2021/08/25 00:00:21;;;;;;;0.73;0.70;;;;;;;;;;6146063;23;20004;-63
2021/08/25 00:02:47;;;;;;;0.70;0.63;;;;;;;;;;6118886;23;20359;-63
2021/08/25 00:05:13;;;;;;;0.50;0.50;;;;;;;;;;6147037;23;20450;-63
2021/08/25 00:07:39;;;;;;;0.65;0.50;;;;;;;;;;6120059;23;20014;-63
2021/08/25 00:10:05;;;;;;;1.00;0.68;;;;;;;;;;6146078;23;20015;-63
2021/08/25 00:12:32;;;;;;;0.55;0.55;;;;;;;;;;6146512;23;20012;-63
2021/08/25 00:14:58;;;;;;;0.68;0.68;;;;;;;;;;6145118;23;20033;-63
2021/08/25 00:17:25;;;;;;;0.57;0.57;;;;;;;;;;6145961;23;20001;-63
2021/08/25 00:19:51;;;;;;;1.30;0.70;;;;;;;;;;6145914;23;20005;-63
2021/08/25 00:22:17;;;;;;;0.50;0.50;;;;;;;;;;6146157;23;20002;-62
2021/08/25 00:24:43;;;;;;;0.60;0.60;;;;;;;;;;6146530;23;20001;-62
2021/08/25 00:27:10;;;;;;;0.80;0.75;;;;;;;;;;6145770;23;20016;-62
2021/08/25 00:29:36;;;;;;;0.60;0.60;;;;;;;;;;6145606;23;20509;-62
2021/08/25 00:32:02;;;;;;;1.05;0.75;;;;;;;;;;6145304;23;20006;-63
2021/08/25 00:34:28;;;;;;;1.80;0.95;;;;;;;;;;6144971;23;20364;-64
2021/08/25 00:36:54;;;;;;;0.68;0.60;;;;;;;;;;6145981;23;20005;-63
2021/08/25 00:39:21;;;;;;;0.88;0.65;;;;;;;;;;6119505;23;20002;-63
2021/08/25 00:41:47;;;;;;;0.60;0.60;;;;;;;;;;6145233;23;20056;-63
2021/08/25 00:44:13;;;;;;;1.00;0.90;;;;;;;;;;6146461;23;20454;-63
2021/08/25 00:46:39;;;;;;;0.80;0.70;;;;;;;;;;6145009;23;20439;-63
2021/08/25 00:49:05;;;;;;;0.60;0.60;;;;;;;;;;6145717;23;20386;-63
2021/08/25 00:51:31;;;;;;;1.40;0.70;;;;;;;;;;6146149;23;20011;-63
2021/08/25 00:53:59;;;;;;;0.80;0.80;;;;;;;;;;6119331;23;20044;-63
2021/08/25 00:56:25;;;;;;;0.57;0.57;;;;;;;;;;6145035;23;20015;-65
2021/08/25 00:58:51;;;;;;;0.68;0.57;;;;;;;;;;6144948;23;20031;-64
2021/08/25 01:01:29;;;;;;;0.98;0.82;;;;;;;;;;6145817;23;20047;-64
2021/08/25 01:03:58;;;;;;;0.65;0.60;;;;;;;;;;6145332;23;20002;-64
2021/08/25 01:06:25;;;;;;;0.63;0.63;;;;;;;;;;6145246;23;20661;-64
2021/08/25 01:08:52;;;;;;;0.90;0.70;;;;;;;;;;6147779;23;20005;-64
2021/08/25 01:11:18;;;;;;;0.50;0.50;;;;;;;;;;6148491;23;20486;-64
2021/08/25 01:13:44;;;;;;;0.68;0.68;;;;;;;;;;6148444;23;20079;-64
2021/08/25 01:16:11;;;;;;;0.60;0.60;;;;;;;;;;6148982;23;20010;-63
2021/08/25 01:18:37;;;;;;;1.05;0.65;;;;;;;;;;6148153;23;20052;-63
2021/08/25 01:21:05;;;;;;;0.50;0.50;;;;;;;;;;6148333;23;20010;-64
2021/08/25 01:23:43;;;;;;;0.70;0.70;;;;;;;;;;6147537;23;20416;-64
2021/08/25 01:26:09;;;;;;;0.93;0.60;;;;;;;;;;6148196;23;20033;-64
2021/08/25 01:28:36;;;;;;;0.43;0.43;;;;;;;;;;6148254;23;20088;-64
2021/08/25 01:31:03;;;;;;;1.08;0.70;;;;;;;;;;6147699;23;20037;-64
2021/08/25 01:33:29;;;;;;;0.80;0.70;;;;;;;;;;6147092;23;20005;-63
2021/08/25 01:35:59;;;;;;;0.68;0.68;;;;;;;;;;6147649;23;20006;-64
2021/08/25 01:38:29;;;;;;;1.70;0.65;;;;;;;;;;6147577;23;20008;-64
2021/08/25 01:40:55;;;;;;;0.60;0.60;;;;;;;;;;6147977;23;20084;-64
2021/08/25 01:43:21;;;;;;;0.70;0.70;;;;;;;;;;6147806;23;20025;-64
2021/08/25 01:45:47;;;;;;;0.70;0.70;;;;;;;;;;6147952;23;20017;-63
2021/08/25 01:48:13;;;;;;;1.35;0.75;;;;;;;;;;6149040;23;20093;-64
2021/08/25 01:50:40;;;;;;;0.98;0.88;;;;;;;;;;6147907;23;20439;-64
2021/08/25 01:53:06;;;;;;;0.77;0.60;;;;;;;;;;6147837;23;20025;-63
2021/08/25 01:55:32;;;;;;;0.73;0.70;;;;;;;;;;6149441;23;20509;-64
2021/08/25 01:57:58;;;;;;;0.90;0.68;;;;;;;;;;6149646;23;20009;-64
2021/08/25 02:00:24;;;;;;;0.77;0.70;;;;;;;;;;6149819;23;20432;-64
2021/08/25 02:02:50;;;;;;;1.42;0.80;;;;;;;;;;6149765;23;20506;-64
2021/08/25 02:05:16;;;;;;;1.00;0.90;;;;;;;;;;6148679;23;20009;-64
2021/08/25 02:07:42;;;;;;;0.68;0.68;;;;;;;;;;6150397;23;20006;-64
2021/08/25 02:10:09;;;;;;;0.90;0.80;;;;;;;;;;6149709;23;20005;-63
2021/08/25 02:12:35;;;;;;;0.82;0.73;;;;;;;;;;6149941;23;20374;-64
2021/08/25 02:15:01;;;;;;;0.75;0.75;;;;;;;;;;6148916;23;20580;-64
2021/08/25 02:17:27;;;;;;;1.23;0.90;;;;;;;;;;6149726;23;20005;-63
2021/08/25 02:19:53;;;;;;;0.77;0.77;;;;;;;;;;6149760;23;20010;-63
2021/08/25 02:22:19;;;;;;;0.60;0.60;;;;;;;;;;6149442;23;20459;-63
2021/08/25 02:24:46;;;;;;;0.80;0.70;;;;;;;;;;6149333;23;20101;-63
2021/08/25 02:27:12;;;;;;;0.60;0.60;;;;;;;;;;6150394;23;20423;-63
2021/08/25 02:29:38;;;;;;;0.70;0.70;;;;;;;;;;6149242;23;20435;-64
2021/08/25 02:32:04;;;;;;;0.80;0.70;;;;;;;;;;6149074;23;20006;-64
2021/08/25 02:34:30;;;;;;;1.13;0.90;;;;;;;;;;6148882;23;20041;-64
2021/08/25 02:36:56;;;;;;;1.05;0.95;;;;;;;;;;6149393;23;20382;-64
2021/08/25 02:39:22;;;;;;;1.02;0.82;;;;;;;;;;6149563;23;20052;-64
2021/08/25 02:41:48;;;;;;;0.70;0.70;;;;;;;;;;6149520;23;20005;-64
2021/08/25 02:44:14;;;;;;;0.65;0.65;;;;;;;;;;6149741;23;20076;-63
2021/08/25 02:46:40;;;;;;;1.88;0.95;;;;;;;;;;6149983;23;20672;-64
2021/08/25 02:49:06;;;;;;;0.90;0.80;;;;;;;;;;6149458;23;20001;-63
2021/08/25 02:51:32;;;;;;;0.80;0.70;;;;;;;;;;6149419;23;20655;-63
2021/08/25 02:53:58;;;;;;;0.93;0.80;;;;;;;;;;6122452;23;20497;-63
2021/08/25 02:56:24;;;;;;;1.20;0.85;;;;;;;;;;6149460;23;20009;-63
2021/08/25 02:58:50;;;;;;;0.80;0.80;;;;;;;;;;6149277;23;20419;-64
2021/08/25 03:01:16;;;;;;;0.80;0.80;;;;;;;;;;6148428;23;20359;-64
2021/08/25 03:03:42;;;;;;;0.88;0.88;;;;;;;;;;6150132;23;20499;-64
2021/08/25 03:06:08;;;;;;;0.70;0.60;;;;;;;;;;6148527;23;20013;-64
2021/08/25 03:08:38;;;;;;;1.02;0.93;;;;;;;;;;6149409;23;20013;-63
2021/08/25 03:11:04;;;;;;;0.75;0.50;;;;;;;;;;6149082;23;20358;-64
2021/08/25 03:13:30;;;;;;;0.80;0.80;;;;;;;;;;6148696;23;20052;-63
2021/08/25 03:15:56;;;;;;;1.00;0.70;;;;;;;;;;6149292;23;20375;-64
2021/08/25 03:18:22;;;;;;;0.93;0.85;;;;;;;;;;6149142;23;20595;-63
2021/08/25 03:20:48;;;;;;;1.02;0.93;;;;;;;;;;6148954;23;20459;-64
2021/08/25 03:23:14;;;;;;;1.02;0.82;;;;;;;;;;6149288;23;20719;-64
2021/08/25 03:25:40;;;;;;;0.77;0.70;;;;;;;;;;6149430;23;20081;-63
2021/08/25 03:28:06;;;;;;;1.15;0.80;;;;;;;;;;6148974;23;20047;-63
2021/08/25 03:30:32;;;;;;;0.70;0.70;;;;;;;;;;6148842;23;20331;-64
2021/08/25 03:32:58;;;;;;;0.95;0.88;;;;;;;;;;6148079;23;20397;-64
2021/08/25 03:35:24;;;;;;;1.05;0.88;;;;;;;;;;6148715;23;20088;-64
2021/08/25 03:37:50;;;;;;;1.23;0.90;;;;;;;;;;6148920;23;20448;-64
2021/08/25 03:40:16;;;;;;;1.15;0.85;;;;;;;;;;6149012;23;20028;-64
2021/08/25 03:42:42;;;;;;;0.93;0.82;;;;;;;;;;6149027;23;19997;-64
2021/08/25 03:45:08;;;;;;;0.75;0.75;;;;;;;;;;6148876;23;20412;-63
2021/08/25 03:47:35;;;;;;;0.82;0.80;;;;;;;;;;6148915;23;20543;-64
2021/08/25 03:50:01;;;;;;;0.70;0.70;;;;;;;;;;6149191;23;20036;-64
2021/08/25 03:52:27;;;;;;;1.00;0.90;;;;;;;;;;6148350;23;20009;-63
2021/08/25 03:54:53;;;;;;;0.80;0.80;;;;;;;;;;6148862;23;20013;-64
2021/08/25 03:57:19;;;;;;;0.95;0.90;;;;;;;;;;6148817;23;19997;-64
2021/08/25 03:59:45;;;;;;;1.02;0.85;;;;;;;;;;6148575;23;20013;-64
2021/08/25 04:02:11;;;;;;;0.82;0.80;;;;;;;;;;6148862;23;20037;-64
2021/08/25 04:04:37;;;;;;;1.00;0.90;;;;;;;;;;6148592;23;20006;-64
2021/08/25 04:07:04;;;;;;;0.90;0.60;;;;;;;;;;6148802;23;20521;-64
2021/08/25 04:09:30;;;;;;;1.05;0.98;;;;;;;;;;6148829;23;20008;-64
2021/08/25 04:11:56;;;;;;;0.88;0.80;;;;;;;;;;6148280;23;20427;-64
2021/08/25 04:14:22;;;;;;;0.77;0.77;;;;;;;;;;6148458;23;20068;-63
2021/08/25 04:16:48;;;;;;;0.98;0.80;;;;;;;;;;6147793;23;20009;-63
2021/08/25 04:19:14;;;;;;;1.42;0.82;;;;;;;;;;6149026;23;20037;-63
2021/08/25 04:21:40;;;;;;;1.05;0.98;;;;;;;;;;6149499;23;20009;-63
2021/08/25 04:24:06;;;;;;;1.05;0.90;;;;;;;;;;6148129;23;20004;-63
2021/08/25 04:26:32;;;;;;;2.38;1.17;;;;;;;;;;6148584;23;20005;-63
2021/08/25 04:28:58;;;;;;;1.20;1.10;;;;;;;;;;6148366;23;20012;-64
2021/08/25 04:31:25;;;;;;;0.95;0.90;;;;;;;;;;6148292;23;20463;-64
2021/08/25 04:33:51;;;;;;;0.88;0.88;;;;;;;;;;6147087;23;20009;-64
2021/08/25 04:36:17;;;;;;;0.95;0.95;;;;;;;;;;6122244;23;20367;-63
2021/08/25 04:38:43;;;;;;;1.00;0.90;;;;;;;;;;6148982;23;20084;-64
2021/08/25 04:41:10;;;;;;;1.00;0.98;;;;;;;;;;6147789;23;20435;-64
2021/08/25 04:43:36;;;;;;;1.20;1.10;;;;;;;;;;6147830;23;20085;-63
2021/08/25 04:46:02;;;;;;;0.90;0.90;;;;;;;;;;6147860;23;20052;-63
2021/08/25 04:48:28;;;;;;;0.80;0.75;;;;;;;;;;6147887;23;20080;-63
2021/08/25 04:50:54;;;;;;;1.08;0.90;;;;;;;;;;6148262;23;20531;-63
2021/08/25 04:53:21;;;;;;;1.52;1.10;;;;;;;;;;6148189;23;20055;-63
2021/08/25 04:55:47;;;;;;;1.17;1.00;;;;;;;;;;6147905;23;20017;-63
2021/08/25 04:58:13;;;;;;;1.17;1.00;;;;;;;;;;6148603;23;20010;-63
2021/08/25 05:00:39;;;;;;;1.25;1.08;;;;;;;;;;6148422;23;20052;-63
2021/08/25 05:03:05;;;;;;;0.95;0.80;;;;;;;;;;6148446;23;20614;-63
2021/08/25 05:05:31;;;;;;;0.93;0.90;;;;;;;;;;6148399;23;20012;-63
2021/08/25 05:07:57;;;;;;;1.05;0.98;;;;;;;;;;6147939;23;20008;-64
2021/08/25 05:10:23;;;;;;;1.08;0.90;;;;;;;;;;6148117;23;20416;-63
2021/08/25 05:12:49;;;;;;;1.27;1.17;;;;;;;;;;6148046;23;20006;-63
2021/08/25 05:15:15;;;;;;;0.90;0.90;;;;;;;;;;6148240;23;20445;-63
2021/08/25 05:17:42;;;;;;;0.90;0.80;;;;;;;;;;6148559;23;20510;-63
2021/08/25 05:20:08;;;;;;;0.80;0.80;;;;;;;;;;6148071;23;20445;-63
2021/08/25 05:22:35;;;;;;;0.80;0.80;;;;;;;;;;6147584;23;20033;-63
2021/08/25 05:25:01;;;;;;;0.80;0.80;;;;;;;;;;6148055;23;20005;-63
2021/08/25 05:27:27;;;;;;;1.00;0.90;;;;;;;;;;6147852;23;20064;-63
2021/08/25 05:29:53;;;;;;;1.45;1.13;;;;;;;;;;6149960;23;20010;-64
2021/08/25 05:32:19;;;;;;;1.20;1.10;;;;;;;;;;6150157;23;20080;-63
2021/08/25 05:34:45;;;;;;;1.23;1.08;;;;;;;;;;6149845;23;20068;-64
2021/08/25 05:37:11;;;;;;;1.17;1.08;;;;;;;;;;6150879;23;20124;-63
2021/08/25 05:39:37;;;;;;;0.88;0.88;;;;;;;;;;6149765;23;20388;-63
2021/08/25 05:42:03;;;;;;;1.23;1.10;;;;;;;;;;6149713;23;20006;-63
2021/08/25 05:44:29;;;;;;;0.82;0.82;;;;;;;;;;6149671;23;19997;-63
2021/08/25 05:46:56;;;;;;;1.23;1.10;;;;;;;;;;6150076;23;20006;-63
2021/08/25 05:49:22;;;;;;;1.00;0.90;;;;;;;;;;6149439;23;20423;-63
2021/08/25 05:51:48;;;;;;;0.95;0.95;;;;;;;;;;6149703;23;20332;-64
2021/08/25 05:54:14;;;;;;;1.35;1.10;;;;;;;;;;6150802;23;20012;-64
2021/08/25 05:56:41;;;;;;;1.25;1.02;;;;;;;;;;6150579;23;20005;-63
2021/08/25 05:59:08;;;;;;;0.98;0.98;;;;;;;;;;6149718;23;20679;-63
2021/08/25 06:01:34;;;;;;;1.48;1.25;;;;;;;;;;6150182;23;20013;-63
2021/08/25 06:04:00;;;;;;;1.42;1.30;;;;;;;;;;6149802;23;20004;-63
2021/08/25 06:06:30;;;;;;;1.00;0.90;;;;;;;;;;6150331;23;20008;-63
2021/08/25 06:08:56;;;;;;;1.48;1.15;;;;;;;;;;6150288;23;20312;-63
2021/08/25 06:11:22;;;;;;;1.58;1.15;;;;;;;;;;6149827;23;20109;-63
2021/08/25 06:13:48;;;;;;;1.10;1.00;;;;;;;;;;6149253;23;20005;-64
2021/08/25 06:16:14;;;;;;;1.15;1.05;;;;;;;;;;6150665;23;20044;-63
2021/08/25 06:18:40;;;;;;;1.67;1.30;;;;;;;;;;6150896;23;20696;-63
2021/08/25 06:21:06;;;;;;;1.30;1.20;;;;;;;;;;6149305;23;20001;-63
2021/08/25 06:23:32;;;;;;;1.80;1.30;;;;;;;;;;6149515;23;20431;-63
2021/08/25 06:25:59;;;;;;;1.23;1.13;;;;;;;;;;6149955;23;20052;-63
2021/08/25 06:28:25;;;;;;;1.35;1.25;;;;;;;;;;6149638;23;20009;-63
2021/08/25 06:30:51;;;;;;;1.55;1.08;;;;;;;;;;6150114;23;20001;-63
2021/08/25 06:33:18;;;;;;;1.48;1.20;;;;;;;;;;6148890;23;20001;-63
2021/08/25 06:35:44;;;;;;;1.58;1.48;;;;;;;;;;6150274;23;20557;-63
2021/08/25 06:38:10;;;;;;;1.20;1.10;;;;;;;;;;6150537;23;20012;-63
2021/08/25 06:40:36;;;;;;;1.65;1.40;;;;;;;;;;6149319;23;20347;-63
2021/08/25 06:43:02;;;;;;;1.23;1.10;;;;;;;;;;6148857;23;20013;-63
2021/08/25 06:45:28;;;;;;;1.63;1.10;;;;;;;;;;6149847;23;20059;-63
2021/08/25 06:47:55;;;;;;;2.10;1.25;;;;;;;;;;6149460;23;20005;-63
2021/08/25 06:50:21;;;;;;;1.30;1.20;;;;;;;;;;6149665;23;20013;-63
2021/08/25 06:52:47;;;;;;;1.20;1.10;;;;;;;;;;6149129;23;20029;-63
2021/08/25 06:55:13;;;;;;;1.30;1.20;;;;;;;;;;6150268;23;20016;-63
2021/08/25 06:57:39;;;;;;;1.58;1.42;;;;;;;;;;6149416;23;20029;-63
2021/08/25 07:00:06;;;;;;;1.70;1.60;;;;;;;;;;6149624;23;20005;-63
2021/08/25 07:02:32;;;;;;;1.45;1.17;;;;;;;;;;6149418;23;20002;-63
2021/08/25 07:04:58;;;;;;;1.58;1.10;;;;;;;;;;6149425;23;20648;-63
2021/08/25 07:07:24;;;;;;;1.20;1.10;;;;;;;;;;6149834;23;20360;-63
2021/08/25 07:09:50;;;;;;;1.33;1.17;;;;;;;;;;6149598;23;20427;-63
2021/08/25 07:12:17;;;;;;;1.00;1.00;;;;;;;;;;6148841;23;20025;-63
2021/08/25 07:14:44;;;;;;;1.88;1.23;;;;;;;;;;6150295;23;20391;-63
2021/08/25 07:17:10;;;;;;;1.40;1.30;;;;;;;;;;6149981;23;20024;-63
2021/08/25 07:19:37;;;;;;;1.13;1.02;;;;;;;;;;6149247;23;20427;-63
2021/08/25 07:22:03;;;;;;;1.17;1.05;;;;;;;;;;6148528;23;20067;-63
2021/08/25 07:24:29;;;;;;;1.23;1.13;;;;;;;;;;6149346;23;20002;-63
2021/08/25 07:26:55;;;;;;;1.30;1.20;;;;;;;;;;6148904;23;20005;-63
2021/08/25 07:29:21;;;;;;;1.40;1.25;;;;;;;;;;6149373;23;20006;-63
2021/08/25 07:31:48;;;;;;;0.90;0.90;;;;;;;;;;6148740;23;20463;-63
2021/08/25 07:34:14;;;;;;;1.23;1.13;;;;;;;;;;6149017;23;20009;-64
2021/08/25 07:36:40;;;;;;;1.17;1.02;;;;;;;;;;6148647;23;20616;-63
2021/08/25 07:39:07;;;;;;;1.30;1.20;;;;;;;;;;6148699;23;20501;-63
2021/08/25 07:41:33;;;;;;;1.30;1.17;;;;;;;;;;6147064;23;20010;-63
2021/08/25 07:43:59;;;;;;;1.40;1.30;;;;;;;;;;6148341;23;20002;-63
2021/08/25 07:46:32;;;;;;;1.45;1.25;;;;;;;;;;6149038;23;20009;-63
2021/08/25 07:48:58;;;;;;;1.40;1.20;;;;;;;;;;6149047;23;20005;-65
2021/08/25 07:51:24;;;;;;;1.27;1.17;;;;;;;;;;6149490;23;20060;-63
2021/08/25 07:53:50;;;;;;;1.25;1.15;;;;;;;;;;6121997;23;20461;-62
2021/08/25 07:56:16;;;;;;;1.30;1.10;;;;;;;;;;6147798;23;20497;-62
2021/08/25 07:58:43;;;;;;;1.50;0.98;;;;;;;;;;6149733;23;20633;-62
2021/08/25 08:01:09;;;;;;;2.97;1.10;;;;;;;;;;6148289;23;20339;-62
2021/08/25 08:03:35;;;;;;;1.35;1.20;;;;;;;;;;6148433;23;20909;-62
2021/08/25 08:06:01;;;;;;;1.30;1.20;;;;;;;;;;6148751;23;20009;-63
2021/08/25 08:08:27;;;;;;;1.67;1.35;;;;;;;;;;6148186;23;20332;-62
2021/08/25 08:10:53;;;;;;;0.98;0.88;;;;;;;;;;6147523;23;20447;-63
2021/08/25 08:13:19;;;;;;;1.20;1.10;;;;;;;;;;6148688;23;20021;-62
2021/08/25 08:15:46;;;;;;;1.20;1.10;;;;;;;;;;6147279;23;20006;-62
2021/08/25 08:18:20;;;;;;;1.15;1.05;;;;;;;;;;6147749;23;20499;-62
2021/08/25 08:20:47;;;;;;;;;;;;;;;;;;6147534;23;20068;-62
2021/08/25 08:23:13;;;;;;;2.05;1.20;;;;;;;;;;6149191;23;19983;-62
2021/08/25 08:25:39;;;;;;;1.35;1.25;;;;;;;;;;6147494;23;20553;-62
2021/08/25 08:28:06;;;;;;;1.20;1.10;;;;;;;;;;6121904;23;20467;-62
2021/08/25 08:30:32;;;;;;;0.90;0.90;;;;;;;;;;6148386;23;20056;-62
2021/08/25 08:32:59;;;;;;;1.17;1.00;;;;;;;;;;6147962;23;20009;-62
2021/08/25 08:35:25;;;;;;;1.20;1.10;;;;;;;;;;6148416;23;20016;-64
2021/08/25 08:37:52;;;;;;;1.05;0.93;;;;;;;;;;6146388;23;20447;-63
2021/08/25 08:40:18;;;;;;;1.60;1.23;;;;;;;;;;6145788;23;20004;-63
2021/08/25 08:42:45;;;;;;;1.25;1.15;;;;;;;;;;6146889;23;20033;-63
2021/08/25 08:45:12;;;;;;;1.40;1.30;;;;;;;;;;6146821;23;20056;-62
2021/08/25 08:47:39;;;;;;;1.25;1.15;;;;;;;;;;6145476;23;20032;-63
2021/08/25 08:50:05;;;;;;;1.15;1.00;;;;;;;;;;6146547;23;20033;-62
2021/08/25 08:52:31;;;;;;;0.93;0.93;;;;;;;;;;6145707;23;20029;-63
2021/08/25 08:54:57;;;;;;;0.90;0.90;;;;;;;;;;6145459;23;20040;-63
2021/08/25 08:57:24;;;;;;;0.70;0.70;;;;;;;;;;6146200;23;20006;-63
2021/08/25 08:59:50;;;;;;;1.73;1.02;;;;;;;;;;6146603;23;20016;-63
2021/08/25 09:02:35;;;;;;;1.13;1.02;;;;;;;;;;6139451;23;20001;-64
2021/08/25 09:05:06;;;;;;;1.40;1.30;;;;;;;;;;6145575;23;20455;-63
2021/08/25 09:07:33;;;;;;;1.17;1.08;;;;;;;;;;6145212;23;20028;-63
2021/08/25 09:09:59;;;;;;;1.20;1.10;;;;;;;;;;6145978;23;20013;-63
2021/08/25 09:12:25;;;;;;;1.30;1.20;;;;;;;;;;6145585;23;20088;-63
2021/08/25 09:14:52;;;;;;;1.13;1.02;;;;;;;;;;6146042;23;20001;-63
2021/08/25 09:17:30;;;;;;;0.90;0.90;;;;;;;;;;6145470;23;20324;-63
2021/08/25 09:20:06;;;;;;;1.00;0.90;;;;;;;;;;6145933;23;20008;-63
2021/08/25 09:22:33;;;;;;;1.10;1.00;;;;;;;;;;6145443;23;20455;-63
2021/08/25 09:24:59;;;;;;;0.93;0.90;;;;;;;;;;6146488;23;20386;-63
2021/08/25 09:27:25;;;;;;;1.20;1.10;;;;;;;;;;6146389;23;20009;-63
2021/08/25 09:29:56;;;;;;;1.80;1.20;;;;;;;;;;6145962;23;20068;-63
2021/08/25 09:32:23;;;;;;;1.55;1.30;;;;;;;;;;6145938;23;20547;-63
2021/08/25 09:35:00;;;;;;;1.23;1.10;;;;;;;;;;6145092;23;20005;-63
2021/08/25 09:37:28;;;;;;;2.08;1.60;;;;;;;;;;6146409;23;20008;-65
2021/08/25 09:39:55;;;;;;;1.90;1.70;;;;;;;;;;6146029;23;20010;-63
2021/08/25 09:42:22;;;;;;;3.33;1.50;;;;;;;;;;6148014;23;20331;-63
2021/08/25 09:45:02;;;;;;;1.38;1.20;;;;;;;;;;6146008;23;20273;-62
2021/08/25 09:47:48;;;;;;;1.20;1.10;;;;;;;;;;6147416;23;20431;-63
2021/08/25 09:50:17;;;;;;;1.35;1.20;;;;;;;;;;6148224;23;20008;-62
2021/08/25 09:52:44;;;;;;;1.20;1.10;;;;;;;;;;6147937;23;20315;-63
2021/08/25 09:55:11;;;;;;;1.13;1.02;;;;;;;;;;6148619;23;20513;-63
2021/08/25 09:57:42;;;;;;;1.08;0.80;;;;;;;;;;6147619;23;20328;-63
2021/08/25 10:00:10;;;;;;;0.80;0.70;;;;;;;;;;6120187;23;20029;-63
2021/08/25 10:02:36;;;;;;;1.23;0.93;;;;;;;;;;6145977;23;20029;-63
2021/08/25 10:05:02;;;;;;;1.13;1.02;;;;;;;;;;6145963;23;19998;-63
2021/08/25 10:07:30;;;;;;;2.28;1.25;;;;;;;;;;6146147;23;20002;-63
2021/08/25 10:09:56;;;;;;;1.80;1.20;;;;;;;;;;6145915;23;20355;-63
2021/08/25 10:12:22;;;;;;;0.80;0.80;;;;;;;;;;6146089;23;20007;-63
2021/08/25 10:14:49;;;;;;;0.70;0.70;;;;;;;;;;6146855;23;20351;-63
2021/08/25 10:17:35;;;;;;;1.02;0.93;;;;;;;;;;6148048;23;20001;-63
2021/08/25 10:20:21;;;;;;;1.67;1.02;;;;;;;;;;6147830;23;20459;-63
2021/08/25 10:22:48;;;;;;;1.10;1.00;;;;;;;;;;6147898;23;19997;-63
2021/08/25 10:25:15;;;;;;;1.10;1.00;;;;;;;;;;6148270;23;20009;-63
2021/08/25 10:28:01;;;;;;;0.93;0.90;;;;;;;;;;6148801;23;20075;-63
2021/08/25 10:30:27;;;;;;;1.10;1.00;;;;;;;;;;6148110;23;20028;-63
2021/08/25 10:32:53;;;;;;;1.05;0.95;;;;;;;;;;6147101;23;20463;-63
2021/08/25 10:35:22;;;;;;;1.27;0.90;;;;;;;;;;6147632;23;20060;-63
2021/08/25 10:37:49;;;;;;;0.85;0.85;;;;;;;;;;6147908;23;20012;-63
2021/08/25 10:40:16;;;;;;;1.38;1.23;;;;;;;;;;6148499;23;20005;-64
2021/08/25 10:42:42;;;;;;;1.65;1.50;;;;;;;;;;6148907;23;19997;-64
2021/08/25 10:45:09;;;;;;;3.15;1.52;;;;;;;;;;6147499;23;20010;-63
2021/08/25 10:47:53;;;;;;;1.25;1.15;;;;;;;;;;6147843;23;20006;-63
2021/08/25 10:50:19;;;;;;;;;;;;;;;;;;6148494;23;20005;-63
2021/08/25 10:52:45;;;;;;;1.00;1.00;;;;;;;;;;6147699;23;19955;-63
2021/08/25 10:55:11;;;;;;;0.90;0.90;;;;;;;;;;6148323;23;20002;-63
2021/08/25 10:57:43;;;;;;;1.20;1.10;;;;;;;;;;6147794;23;20005;-63
2021/08/25 11:00:09;;;;;;;0.90;0.90;;;;;;;;;;6147947;23;20369;-63
2021/08/25 11:02:42;;;;;;;0.82;0.82;;;;;;;;;;6147559;23;20395;-64
2021/08/25 11:05:08;;;;;;;1.70;1.13;;;;;;;;;;6147925;23;20411;-64
2021/08/25 11:07:43;;;;;;;1.20;1.10;;;;;;;;;;6147967;23;20005;-63
2021/08/25 11:10:09;;;;;;;1.23;1.13;;;;;;;;;;6147955;23;20002;-64
2021/08/25 11:12:44;;;;;;;1.25;1.15;;;;;;;;;;6147752;23;20356;-64
2021/08/25 11:15:10;;;;;;;1.38;1.27;;;;;;;;;;6148157;23;20060;-63
2021/08/25 11:17:41;;;;;;;1.15;1.05;;;;;;;;;;6147360;23;20249;-63
2021/08/25 11:20:10;;;;;;;1.20;1.00;;;;;;;;;;6147269;23;20463;-63
2021/08/25 11:22:40;;;;;;;1.02;0.95;;;;;;;;;;6147342;23;20001;-63
2021/08/25 11:25:11;;;;;;;1.20;1.10;;;;;;;;;;6147229;23;20394;-63
2021/08/25 11:27:43;;;;;;;1.27;1.17;;;;;;;;;;6147189;23;20451;-63
2021/08/25 11:30:12;;;;;;;1.40;1.30;;;;;;;;;;6147517;23;20029;-63
2021/08/25 11:32:47;;;;;;;1.10;1.00;;;;;;;;;;6147233;23;20029;-64
2021/08/25 11:35:15;;;;;;;1.38;1.27;;;;;;;;;;6148006;23;20095;-64
2021/08/25 11:37:44;;;;;;;1.00;1.00;;;;;;;;;;6148150;23;20012;-63
2021/08/25 11:40:11;;;;;;;0.90;0.90;;;;;;;;;;6148063;23;20004;-63
2021/08/25 11:42:37;;;;;;;1.27;1.17;;;;;;;;;;6147166;23;20005;-64
2021/08/25 11:45:28;;;;;;;1.23;1.13;;;;;;;;;;6147646;23;20083;-63
2021/08/25 11:47:56;;;;;;;1.35;1.25;;;;;;;;;;6132981;23;20065;-64
2021/08/25 11:50:25;;;;;;;1.20;1.10;;;;;;;;;;6147314;23;20001;-64
2021/08/25 11:52:52;;;;;;;1.10;1.00;;;;;;;;;;6146753;23;20001;-64
2021/08/25 11:55:19;;;;;;;1.60;1.38;;;;;;;;;;6147437;23;20033;-64
2021/08/25 11:57:52;;;;;;;1.10;1.00;;;;;;;;;;6147736;23;20082;-64
2021/08/25 12:00:21;;;;;;;1.25;1.15;;;;;;;;;;6147280;23;20443;-64
2021/08/25 12:02:54;;;;;;;1.10;1.00;;;;;;;;;;6147196;23;20005;-63
2021/08/25 12:05:41;;;;;;;0.90;0.90;;;;;;;;;;6147057;23;20013;-64
2021/08/25 12:08:11;;;;;;;1.00;1.00;;;;;;;;;;6146774;23;20036;-64
2021/08/25 12:10:44;;;;;;;0.80;0.80;;;;;;;;;;6147059;23;20063;-63
2021/08/25 12:13:11;;;;;;;0.80;0.80;;;;;;;;;;6148316;23;20320;-64
2021/08/25 12:15:44;;;;;;;1.00;1.00;;;;;;;;;;6147176;23;20005;-64
2021/08/25 12:18:10;;;;;;;0.77;0.77;;;;;;;;;;6147657;23;20002;-63
2021/08/25 12:20:36;;;;;;;0.75;0.75;;;;;;;;;;6146900;23;20006;-63
2021/08/25 12:23:04;;;;;;;0.70;0.70;;;;;;;;;;6146447;23;20075;-64
2021/08/25 12:25:56;;;;;;;0.90;0.90;;;;;;;;;;6146877;23;20357;-64
2021/08/25 12:28:35;;;;;;;0.80;0.80;;;;;;;;;;6141513;23;20013;-63
2021/08/25 12:31:18;;;;;;;1.38;0.80;;;;;;;;;;6146826;23;20399;-63
2021/08/25 12:33:46;;;;;;;0.80;0.80;;;;;;;;;;6146576;23;20017;-64
2021/08/25 12:36:31;;;;;;;1.08;0.98;;;;;;;;;;6147644;23;20403;-63
2021/08/25 12:39:09;;;;;;;0.88;0.88;;;;;;;;;;6146149;23;20025;-63
2021/08/25 12:41:37;;;;;;;0.70;0.70;;;;;;;;;;6146750;23;20012;-64
2021/08/25 12:44:04;;;;;;;1.00;0.88;;;;;;;;;;6146808;23;20088;-64
2021/08/25 12:46:30;;;;;;;0.88;0.88;;;;;;;;;;6146447;23;20092;-64
2021/08/25 12:48:56;;;;;;;0.90;0.90;;;;;;;;;;6146934;23;20005;-64
2021/08/25 12:51:23;;;;;;;1.08;0.98;;;;;;;;;;6146939;23;20009;-64
2021/08/25 12:53:51;;;;;;;1.00;1.00;;;;;;;;;;6146254;23;20423;-64
2021/08/25 12:56:18;;;;;;;0.90;0.90;;;;;;;;;;6146584;23;20550;-64
2021/08/25 12:58:44;;;;;;;0.82;0.82;;;;;;;;;;6147345;23;20001;-64
2021/08/25 13:01:14;;;;;;;1.00;1.00;;;;;;;;;;6147547;23;20510;-64
2021/08/25 13:03:40;;;;;;;0.80;0.80;;;;;;;;;;6146924;23;20068;-64
2021/08/25 13:06:07;;;;;;;0.88;0.88;;;;;;;;;;6146709;23;20002;-64
2021/08/25 13:08:33;;;;;;;1.08;0.98;;;;;;;;;;6146660;23;20013;-64
2021/08/25 13:11:00;;;;;;;0.88;0.88;;;;;;;;;;6146564;23;20085;-64
2021/08/25 13:13:26;;;;;;;0.80;0.80;;;;;;;;;;6146386;23;20009;-63
2021/08/25 13:15:54;;;;;;;1.20;1.10;;;;;;;;;;6146577;23;20084;-65
2021/08/25 13:18:23;;;;;;;0.88;0.88;;;;;;;;;;6145891;23;20002;-64
2021/08/25 13:20:49;;;;;;;0.80;0.80;;;;;;;;;;6146543;23;20474;-65
2021/08/25 13:23:15;;;;;;;1.08;1.00;;;;;;;;;;6147070;23;20085;-65
2021/08/25 13:25:41;;;;;;;0.90;0.90;;;;;;;;;;6147112;23;20553;-65
2021/08/25 13:28:08;;;;;;;0.70;0.70;;;;;;;;;;6119963;23;20006;-64
2021/08/25 13:30:34;;;;;;;0.93;0.90;;;;;;;;;;6146283;23;20025;-64
2021/08/25 13:33:00;;;;;;;0.88;0.70;;;;;;;;;;6145810;23;20005;-64
2021/08/25 13:35:27;;;;;;;0.90;0.90;;;;;;;;;;6146319;23;20009;-65
2021/08/25 13:37:53;;;;;;;0.70;0.70;;;;;;;;;;6146144;23;20013;-65
2021/08/25 13:40:19;;;;;;;0.73;0.73;;;;;;;;;;6146852;23;20002;-65
2021/08/25 13:42:45;;;;;;;0.90;0.88;;;;;;;;;;6145567;23;20008;-67
2021/08/25 13:45:12;;;;;;;1.23;1.05;;;;;;;;;;6147185;23;20004;-66
2021/08/25 13:47:39;;;;;;;0.90;0.90;;;;;;;;;;6146790;23;20072;-67
2021/08/25 13:50:05;;;;;;;1.20;1.10;;;;;;;;;;6147637;23;20002;-66
2021/08/25 13:52:32;;;;;;;2.35;1.30;;;;;;;;;;6148179;23;20029;-65
2021/08/25 13:54:59;;;;;;;1.23;0.90;;;;;;;;;;6148307;23;20354;-66
2021/08/25 13:57:26;;;;;;;1.20;1.10;;;;;;;;;;6147959;23;20005;-65
2021/08/25 13:59:52;;;;;;;1.08;1.00;;;;;;;;;;6148114;23;20012;-65
2021/08/25 14:02:19;;;;;;;1.15;1.05;;;;;;;;;;6147792;23;20439;-65
2021/08/25 14:04:45;;;;;;;0.80;0.80;;;;;;;;;;6148758;23;20028;-65
2021/08/25 14:07:11;;;;;;;1.27;1.00;;;;;;;;;;6122214;23;20013;-65
2021/08/25 14:09:37;;;;;;;1.00;1.00;;;;;;;;;;6147416;23;20010;-67
2021/08/25 14:12:03;;;;;;;1.02;0.93;;;;;;;;;;6146064;23;20497;-66
2021/08/25 14:14:29;;;;;;;1.20;1.10;;;;;;;;;;6149069;23;20083;-65
2021/08/25 14:16:55;;;;;;;1.00;0.90;;;;;;;;;;6148974;23;20005;-66
2021/08/25 14:19:21;;;;;;;0.95;0.93;;;;;;;;;;6149526;23;20451;-65
2021/08/25 14:21:47;;;;;;;0.85;0.85;;;;;;;;;;6150270;23;20466;-66
2021/08/25 14:24:13;;;;;;;0.82;0.82;;;;;;;;;;6149853;23;20006;-66
2021/08/25 14:26:39;;;;;;;0.85;0.85;;;;;;;;;;6149489;23;20430;-66
2021/08/25 14:29:05;;;;;;;1.65;1.10;;;;;;;;;;6123067;23;20092;-65
2021/08/25 14:31:31;;;;;;;1.35;1.00;;;;;;;;;;6149301;23;20005;-66
2021/08/25 14:33:57;;;;;;;1.23;1.13;;;;;;;;;;6148427;23;20474;-65
2021/08/25 14:36:23;;;;;;;1.05;1.00;;;;;;;;;;6149288;23;20006;-65
2021/08/25 14:38:50;;;;;;;1.10;1.00;;;;;;;;;;6148673;23;20021;-65
2021/08/25 14:41:17;;;;;;;1.10;1.00;;;;;;;;;;6149680;23;20002;-65
2021/08/25 14:43:43;;;;;;;1.08;1.00;;;;;;;;;;6149576;23;20038;-66